Terminal Aerodrome Forecast
Issued by NWS

Home | Current Version | Previous Version | Text Only | Print | Product List | Glossary On
Versions: 1 2 3 4 5 6 7 8 9 10 11 12 13 14 15 16 17 18 19 20 21 22 23 24 25 26 27
000
FTUS43 KGRB 301903 AAA
TAFRHI
TAF AMD
KRHI 301903Z 3019/3118 28012G20KT P6SM SCT060
     FM302000 28014G22KT P6SM BKN060
      TEMPO 3021/3023 TSRA BKN060CB
     FM310000 27007KT P6SM SCT070
      TEMPO 3109/3112 BKN070
     FM311400 29011G15KT P6SM SKC=

USA.gov is the U.S. government's official web portal to all federal, state and local government web resources and services.